»·PEaware :: N20791 KYKM-S31

N20791 :: KYKM-S31

FLIGHT INFORMATION

Flight Status: Arrived
Operator: Privately registered:
United States
More flights under this callsign
Pilot: Russell T. (852)
Aircraft: CESSNA 182 SKYLANE
(C182)
More flights by this aircraft type
Origin: KYKM Yakima Air Term/Mcallister
United States
Destination: S31 Lopez Island
United States
More flights between these airports :: More routes between these airports
Route: +WENAS7 TITON V4 DIGGN V165 CVV
File this flight plan on PilotEdge
Remarks:
Altitude:
(Current/Filed)
10,000ft
Speed:
(Current/Filed)
120kts
Departed: 22-May-20 06:58 PM
Arrived: 22-May-20 08:18 PM
Distance/Time
Traveled:
150nm/1:20
Distance/Time
To Go:
Arrived

Flight Plot

Page will automatically refresh every two minutes.


Map Options




Map Legend


Flown Route
Filed Route
Departure Airport
Arrival Airport
Navaid (VOR, NDB)
Fix

Horizontal Profiles

Position Reports

Time Latitude Longitude Heading Altitude Ground
Speed
22-May-20 18:35 46.569888 -120.539494 0 1098ft 0kts
22-May-20 18:36 46.569889 -120.539494 0 1098ft 0kts
22-May-20 18:37 46.569890 -120.539494 0 1098ft 0kts
22-May-20 18:38 46.569891 -120.539494 0 1098ft 0kts
22-May-20 18:39 46.569892 -120.539494 0 1098ft 0kts
22-May-20 18:40 46.569893 -120.539494 0 1098ft 0kts
22-May-20 18:41 46.569894 -120.539494 0 1098ft 0kts
22-May-20 18:42 46.569895 -120.539494 0 1098ft 0kts
22-May-20 18:43 46.569896 -120.539494 0 1098ft 0kts
22-May-20 18:44 46.569897 -120.539494 0 1098ft 0kts
22-May-20 18:45 46.569898 -120.539494 0 1098ft 0kts
22-May-20 18:46 46.569899 -120.539494 0 1098ft 0kts
22-May-20 18:47 46.569900 -120.539494 0 1098ft 0kts
22-May-20 18:48 46.568610 -120.539488 165 1098ft 11kts
22-May-20 18:49 46.568146 -120.538859 118 1098ft 14kts
22-May-20 18:50 46.566334 -120.531688 107 1098ft 11kts
22-May-20 18:51 46.566036 -120.531202 214 1098ft 0kts
22-May-20 18:52 46.566035 -120.531203 214 1098ft 0kts
22-May-20 18:53 46.566034 -120.531204 214 1098ft 0kts
22-May-20 18:54 46.566033 -120.531204 214 1098ft 0kts
22-May-20 18:55 46.566032 -120.531205 214 1098ft 0kts
22-May-20 18:56 46.565966 -120.531267 214 1098ft 4kts
22-May-20 18:57 46.566686 -120.536144 292 1098ft 59kts
22-May-20 18:58 46.575474 -120.575066 291 1557ft 123kts
22-May-20 18:59 46.582393 -120.617804 277 2797ft 100kts
22-May-20 19:00 46.592477 -120.656423 336 3711ft 109kts
22-May-20 19:01 46.621446 -120.648543 20 4656ft 109kts
22-May-20 19:02 46.648115 -120.630889 19 5649ft 95kts
22-May-20 19:03 46.670115 -120.653318 310 6529ft 112kts
22-May-20 19:04 46.689027 -120.693345 311 7215ft 125kts
22-May-20 19:05 46.707651 -120.732603 314 8109ft 111kts
22-May-20 19:06 46.714289 -120.774562 306 9007ft 101kts
22-May-20 19:07 46.727392 -120.806576 322 9861ft 87kts
22-May-20 19:08 46.750476 -120.832028 334 10004ft 127kts
22-May-20 19:09 46.775562 -120.875560 312 10001ft 147kts
22-May-20 19:10 46.798888 -120.925393 312 9995ft 147kts
22-May-20 19:11 46.822044 -120.974580 312 10000ft 147kts
22-May-20 19:12 46.845267 -121.023942 312 10000ft 147kts
22-May-20 19:13 46.868432 -121.073313 312 10000ft 147kts
22-May-20 19:14 46.891585 -121.122744 312 9999ft 147kts
22-May-20 19:15 46.914756 -121.172293 312 9999ft 147kts
22-May-20 19:16 46.937853 -121.221771 312 10001ft 147kts
22-May-20 19:18 46.960987 -121.271416 312 10000ft 147kts
22-May-20 19:19 46.984117 -121.321136 312 10000ft 147kts
22-May-20 19:20 47.007144 -121.370725 312 10000ft 147kts
22-May-20 19:21 47.030212 -121.420504 312 9998ft 146kts
22-May-20 19:22 47.052978 -121.469702 312 9999ft 145kts
22-May-20 19:23 47.075617 -121.518712 312 10000ft 145kts
22-May-20 19:24 47.098249 -121.567797 312 10000ft 145kts
22-May-20 19:25 47.120890 -121.616978 312 10000ft 145kts
22-May-20 19:26 47.143497 -121.666226 312 10000ft 145kts
22-May-20 19:27 47.166078 -121.715480 312 10000ft 145kts
22-May-20 19:28 47.188664 -121.764833 312 10000ft 145kts
22-May-20 19:29 47.211200 -121.814158 312 10000ft 145kts
22-May-20 19:30 47.233778 -121.863662 312 10000ft 145kts
22-May-20 19:31 47.256305 -121.913118 312 10001ft 145kts
22-May-20 19:32 47.278822 -121.962708 312 10000ft 145kts
22-May-20 19:33 47.301251 -122.012165 312 10000ft 145kts
22-May-20 19:34 47.323760 -122.061880 312 9999ft 145kts
22-May-20 19:35 47.346194 -122.111502 312 10000ft 145kts
22-May-20 19:35 47.364949 -122.153017 312 10000ft 145kts
22-May-20 19:37 47.391104 -122.211104 311 10001ft 145kts
22-May-20 19:37 47.409772 -122.252620 311 9999ft 145kts
22-May-20 19:38 47.432137 -122.302432 312 10000ft 145kts
22-May-20 19:39 47.463392 -122.334446 337 10001ft 136kts
22-May-20 19:40 47.496005 -122.363234 337 10000ft 136kts
22-May-20 19:41 47.528606 -122.392076 337 10000ft 136kts
22-May-20 19:42 47.561109 -122.420953 337 10000ft 136kts
22-May-20 19:43 47.593664 -122.449887 337 10000ft 136kts
22-May-20 19:44 47.626243 -122.478878 337 10000ft 136kts
22-May-20 19:45 47.658805 -122.507895 337 10000ft 136kts
22-May-20 19:46 47.691363 -122.536952 337 10000ft 136kts
22-May-20 19:47 47.723954 -122.566081 337 10000ft 136kts
22-May-20 19:48 47.756529 -122.595241 337 10000ft 136kts
22-May-20 19:49 47.789091 -122.624430 337 10000ft 136kts
22-May-20 19:50 47.821626 -122.653638 336 10000ft 136kts
22-May-20 19:51 47.854168 -122.682895 336 10000ft 136kts
22-May-20 19:52 47.886705 -122.712186 336 10000ft 136kts
22-May-20 19:53 47.919155 -122.741394 336 10000ft 136kts
22-May-20 19:54 47.952483 -122.766121 7 9993ft 127kts
22-May-20 19:55 47.987404 -122.760992 10 10001ft 126kts
22-May-20 19:56 48.022482 -122.756025 10 10000ft 126kts
22-May-20 19:57 48.057596 -122.751047 10 10000ft 126kts
22-May-20 19:58 48.095718 -122.745605 10 9414ft 146kts
22-May-20 19:59 48.136785 -122.739786 11 8718ft 149kts
22-May-20 20:00 48.178498 -122.733851 11 8017ft 151kts
22-May-20 20:01 48.221025 -122.727766 12 7200ft 157kts
22-May-20 20:02 48.264008 -122.741376 334 6085ft 170kts
22-May-20 20:03 48.300547 -122.774046 336 5997ft 142kts
22-May-20 20:04 48.325270 -122.819046 301 6016ft 146kts
22-May-20 20:05 48.345966 -122.879149 301 5138ft 171kts
22-May-20 20:06 48.367037 -122.940180 301 3933ft 125kts
22-May-20 20:07 48.388605 -122.948975 22 2870ft 82kts
22-May-20 20:08 48.410974 -122.936450 9 1788ft 86kts
22-May-20 20:09 48.434589 -122.937058 358 1216ft 83kts
22-May-20 20:10 48.457363 -122.945873 345 1193ft 81kts
22-May-20 20:11 48.478153 -122.956340 338 1204ft 81kts
22-May-20 20:12 48.501980 -122.961705 358 1200ft 89kts
22-May-20 20:13 48.526314 -122.958373 53 1005ft 96kts
22-May-20 20:14 48.510934 -122.935702 187 846ft 103kts
22-May-20 20:15 48.484875 -122.937686 180 212ft 72kts
22-May-20 20:16 48.482753 -122.937121 357 212ft 50kts
22-May-20 20:17 48.486910 -122.937021 78 212ft 0kts
22-May-20 20:18 48.486911 -122.937019 78 212ft 0kts
22-May-20 20:19 48.486911 -122.937017 78 212ft 0kts
22-May-20 20:20 48.486911 -122.937015 78 212ft 0kts
22-May-20 20:21 48.486911 -122.937013 78 212ft 0kts
22-May-20 20:22 48.486912 -122.937011 78 212ft 0kts
22-May-20 20:23 48.486912 -122.937009 78 212ft 0kts
22-May-20 20:24 48.486912 -122.937007 78 212ft 0kts
22-May-20 20:25 48.486912 -122.937006 78 212ft 0kts
22-May-20 20:26 48.486913 -122.937004 78 212ft 0kts
22-May-20 20:27 48.486913 -122.937002 78 212ft 0kts
22-May-20 20:28 48.486913 -122.937000 78 212ft 0kts
22-May-20 20:29 48.486913 -122.936999 78 212ft 0kts
22-May-20 20:30 48.486914 -122.936997 78 212ft 0kts
22-May-20 20:31 48.486914 -122.936995 78 212ft 0kts

Navigation Log

Ident Type
Flight plan parsing failed, navigation log unavailable